sensor_id;sensor_type;location;lat;lon;timestamp;P1;durP1;ratioP1;P2;durP2;ratioP2
8568;SDS011;4322;51.104;-4.162;2022-12-07T16:02:46;2.00;;;2.00;;
8568;SDS011;4322;51.104;-4.162;2022-12-07T16:05:14;2.00;;;2.00;;
8568;SDS011;4322;51.104;-4.162;2022-12-07T16:07:42;1.90;;;1.90;;
8568;SDS011;4322;51.104;-4.162;2022-12-07T16:10:13;2.00;;;2.00;;
8568;SDS011;4322;51.104;-4.162;2022-12-07T16:12:41;1.80;;;1.80;;
8568;SDS011;4322;51.104;-4.162;2022-12-07T16:15:09;1.70;;;1.70;;
8568;SDS011;4322;51.104;-4.162;2022-12-07T16:17:37;1.60;;;1.60;;
8568;SDS011;4322;51.104;-4.162;2022-12-07T16:20:07;1.73;;;1.73;;
8568;SDS011;4322;51.104;-4.162;2022-12-07T16:22:36;1.90;;;1.90;;
8568;SDS011;4322;51.104;-4.162;2022-12-07T16:25:05;1.90;;;1.90;;
8568;SDS011;4322;51.104;-4.162;2022-12-07T16:27:33;1.70;;;1.70;;
8568;SDS011;4322;51.104;-4.162;2022-12-07T16:30:02;1.90;;;1.90;;
8568;SDS011;4322;51.104;-4.162;2022-12-07T16:32:31;2.00;;;2.00;;
8568;SDS011;4322;51.104;-4.162;2022-12-07T16:34:59;1.80;;;1.80;;
8568;SDS011;4322;51.104;-4.162;2022-12-07T16:37:29;1.67;;;1.67;;
8568;SDS011;4322;51.104;-4.162;2022-12-07T16:39:57;1.60;;;1.60;;
8568;SDS011;4322;51.104;-4.162;2022-12-07T16:42:25;1.80;;;1.80;;
8568;SDS011;4322;51.104;-4.162;2022-12-07T16:44:53;1.50;;;1.50;;
8568;SDS011;4322;51.104;-4.162;2022-12-07T16:47:21;1.60;;;1.60;;
8568;SDS011;4322;51.104;-4.162;2022-12-07T16:49:49;1.70;;;1.70;;
8568;SDS011;4322;51.104;-4.162;2022-12-07T16:52:18;1.80;;;1.80;;
8568;SDS011;4322;51.104;-4.162;2022-12-07T16:54:48;1.80;;;1.80;;
8568;SDS011;4322;51.104;-4.162;2022-12-07T16:57:17;1.63;;;1.63;;
8568;SDS011;4322;51.104;-4.162;2022-12-07T16:59:49;1.77;;;1.77;;
8568;SDS011;4322;51.104;-4.162;2022-12-07T17:02:18;1.77;;;1.77;;
8568;SDS011;4322;51.104;-4.162;2022-12-07T17:04:47;1.70;;;1.70;;
8568;SDS011;4322;51.104;-4.162;2022-12-07T17:07:15;1.60;;;1.60;;
8568;SDS011;4322;51.104;-4.162;2022-12-07T17:09:43;1.60;;;1.60;;
8568;SDS011;4322;51.104;-4.162;2022-12-07T17:12:12;1.60;;;1.60;;
8568;SDS011;4322;51.104;-4.162;2022-12-07T17:14:40;1.60;;;1.60;;
8568;SDS011;4322;51.104;-4.162;2022-12-07T17:17:26;1.70;;;1.70;;
8568;SDS011;4322;51.104;-4.162;2022-12-07T17:19:54;1.67;;;1.67;;
8568;SDS011;4322;51.104;-4.162;2022-12-07T17:22:22;1.70;;;1.70;;
8568;SDS011;4322;51.104;-4.162;2022-12-07T17:24:50;1.90;;;1.90;;
8568;SDS011;4322;51.104;-4.162;2022-12-07T17:27:20;1.50;;;1.50;;
8568;SDS011;4322;51.104;-4.162;2022-12-07T17:29:48;1.70;;;1.70;;
8568;SDS011;4322;51.104;-4.162;2022-12-07T17:32:16;1.80;;;1.80;;
8568;SDS011;4322;51.104;-4.162;2022-12-07T17:34:44;1.80;;;1.80;;
8568;SDS011;4322;51.104;-4.162;2022-12-07T17:37:12;1.80;;;1.80;;
8568;SDS011;4322;51.104;-4.162;2022-12-07T17:39:40;1.90;;;1.90;;
8568;SDS011;4322;51.104;-4.162;2022-12-07T17:42:08;2.00;;;2.00;;
8568;SDS011;4322;51.104;-4.162;2022-12-07T17:44:56;1.93;;;1.93;;
8568;SDS011;4322;51.104;-4.162;2022-12-07T17:47:24;1.80;;;1.80;;
8568;SDS011;4322;51.104;-4.162;2022-12-07T17:49:52;1.90;;;1.90;;
8568;SDS011;4322;51.104;-4.162;2022-12-07T17:52:20;1.70;;;1.70;;
8568;SDS011;4322;51.104;-4.162;2022-12-07T17:55:05;1.90;;;1.90;;
8568;SDS011;4322;51.104;-4.162;2022-12-07T17:57:34;1.90;;;1.90;;
8568;SDS011;4322;51.104;-4.162;2022-12-07T18:00:05;1.90;;;1.90;;
8568;SDS011;4322;51.104;-4.162;2022-12-07T18:02:35;1.80;;;1.80;;
8568;SDS011;4322;51.104;-4.162;2022-12-07T18:05:03;1.80;;;1.80;;
8568;SDS011;4322;51.104;-4.162;2022-12-07T18:07:31;1.90;;;1.90;;
8568;SDS011;4322;51.104;-4.162;2022-12-07T18:10:00;2.00;;;2.00;;
8568;SDS011;4322;51.104;-4.162;2022-12-07T18:12:28;1.80;;;1.80;;
8568;SDS011;4322;51.104;-4.162;2022-12-07T18:14:57;1.83;;;1.83;;
8568;SDS011;4322;51.104;-4.162;2022-12-07T18:17:27;2.27;;;2.17;;
8568;SDS011;4322;51.104;-4.162;2022-12-07T18:19:55;2.30;;;2.20;;
8568;SDS011;4322;51.104;-4.162;2022-12-07T18:22:23;2.00;;;2.00;;
8568;SDS011;4322;51.104;-4.162;2022-12-07T18:24:51;2.30;;;2.20;;
8568;SDS011;4322;51.104;-4.162;2022-12-07T18:27:20;2.30;;;2.20;;
8568;SDS011;4322;51.104;-4.162;2022-12-07T18:29:48;2.03;;;2.03;;
8568;SDS011;4322;51.104;-4.162;2022-12-07T18:32:16;2.40;;;2.30;;
8568;SDS011;4322;51.104;-4.162;2022-12-07T18:34:46;2.40;;;2.30;;
8568;SDS011;4322;51.104;-4.162;2022-12-07T18:37:14;2.00;;;2.00;;
8568;SDS011;4322;51.104;-4.162;2022-12-07T18:39:42;2.50;;;2.40;;
8568;SDS011;4322;51.104;-4.162;2022-12-07T18:42:10;2.60;;;2.50;;
8568;SDS011;4322;51.104;-4.162;2022-12-07T18:44:38;2.33;;;2.23;;
8568;SDS011;4322;51.104;-4.162;2022-12-07T18:47:06;2.70;;;2.60;;
8568;SDS011;4322;51.104;-4.162;2022-12-07T18:49:34;2.40;;;2.30;;
8568;SDS011;4322;51.104;-4.162;2022-12-07T18:52:03;2.60;;;2.50;;
8568;SDS011;4322;51.104;-4.162;2022-12-07T18:54:31;2.50;;;2.40;;
8568;SDS011;4322;51.104;-4.162;2022-12-07T18:56:59;2.50;;;2.40;;
8568;SDS011;4322;51.104;-4.162;2022-12-07T18:59:27;2.60;;;2.50;;
8568;SDS011;4322;51.104;-4.162;2022-12-07T19:02:15;2.30;;;2.20;;
8568;SDS011;4322;51.104;-4.162;2022-12-07T19:04:44;2.40;;;2.30;;
8568;SDS011;4322;51.104;-4.162;2022-12-07T19:07:13;2.10;;;2.10;;
8568;SDS011;4322;51.104;-4.162;2022-12-07T19:09:42;2.30;;;2.20;;
8568;SDS011;4322;51.104;-4.162;2022-12-07T19:12:11;2.50;;;2.40;;
8568;SDS011;4322;51.104;-4.162;2022-12-07T19:14:39;2.60;;;2.50;;
8568;SDS011;4322;51.104;-4.162;2022-12-07T19:17:08;2.57;;;2.47;;
8568;SDS011;4322;51.104;-4.162;2022-12-07T19:19:39;2.60;;;2.50;;
8568;SDS011;4322;51.104;-4.162;2022-12-07T19:22:11;2.50;;;2.40;;
8568;SDS011;4322;51.104;-4.162;2022-12-07T19:24:42;2.47;;;2.37;;
8568;SDS011;4322;51.104;-4.162;2022-12-07T19:27:13;2.27;;;2.17;;
8568;SDS011;4322;51.104;-4.162;2022-12-07T19:29:42;2.40;;;2.30;;
8568;SDS011;4322;51.104;-4.162;2022-12-07T19:32:11;2.30;;;2.20;;
8568;SDS011;4322;51.104;-4.162;2022-12-07T19:34:40;2.30;;;2.20;;
8568;SDS011;4322;51.104;-4.162;2022-12-07T19:37:10;2.40;;;2.30;;
8568;SDS011;4322;51.104;-4.162;2022-12-07T19:39:39;2.30;;;2.20;;
8568;SDS011;4322;51.104;-4.162;2022-12-07T19:42:10;2.30;;;2.20;;
8568;SDS011;4322;51.104;-4.162;2022-12-07T19:44:38;2.10;;;2.10;;
8568;SDS011;4322;51.104;-4.162;2022-12-07T19:47:07;2.17;;;2.10;;
8568;SDS011;4322;51.104;-4.162;2022-12-07T19:49:36;2.30;;;2.20;;
8568;SDS011;4322;51.104;-4.162;2022-12-07T19:52:04;2.40;;;2.30;;
8568;SDS011;4322;51.104;-4.162;2022-12-07T19:54:34;2.30;;;2.20;;
8568;SDS011;4322;51.104;-4.162;2022-12-07T19:57:03;2.00;;;2.00;;
8568;SDS011;4322;51.104;-4.162;2022-12-07T19:59:34;1.90;;;1.90;;
8568;SDS011;4322;51.104;-4.162;2022-12-07T20:02:02;2.10;;;2.10;;
8568;SDS011;4322;51.104;-4.162;2022-12-07T20:04:30;2.30;;;2.20;;
8568;SDS011;4322;51.104;-4.162;2022-12-07T20:07:01;2.13;;;2.13;;
8568;SDS011;4322;51.104;-4.162;2022-12-07T20:09:29;2.67;;;2.57;;
8568;SDS011;4322;51.104;-4.162;2022-12-07T20:11:57;2.40;;;2.30;;
8568;SDS011;4322;51.104;-4.162;2022-12-07T20:14:44;2.50;;;2.40;;
8568;SDS011;4322;51.104;-4.162;2022-12-07T20:17:13;2.50;;;2.40;;
8568;SDS011;4322;51.104;-4.162;2022-12-07T20:19:44;2.60;;;2.50;;
8568;SDS011;4322;51.104;-4.162;2022-12-07T20:22:13;2.60;;;2.50;;
8568;SDS011;4322;51.104;-4.162;2022-12-07T20:24:42;2.60;;;2.50;;
8568;SDS011;4322;51.104;-4.162;2022-12-07T20:27:10;2.40;;;2.30;;
8568;SDS011;4322;51.104;-4.162;2022-12-07T20:29:38;2.60;;;2.50;;
8568;SDS011;4322;51.104;-4.162;2022-12-07T20:32:09;2.90;;;2.80;;
8568;SDS011;4322;51.104;-4.162;2022-12-07T20:34:38;2.87;;;2.77;;
8568;SDS011;4322;51.104;-4.162;2022-12-07T20:37:14;2.70;;;2.60;;
8568;SDS011;4322;51.104;-4.162;2022-12-07T20:39:42;2.70;;;2.60;;
8568;SDS011;4322;51.104;-4.162;2022-12-07T20:42:10;3.00;;;2.90;;
8568;SDS011;4322;51.104;-4.162;2022-12-07T20:44:55;2.70;;;2.60;;
8568;SDS011;4322;51.104;-4.162;2022-12-07T20:47:33;2.90;;;2.80;;
8568;SDS011;4322;51.104;-4.162;2022-12-07T20:50:02;2.80;;;2.70;;
8568;SDS011;4322;51.104;-4.162;2022-12-07T20:52:32;3.00;;;2.90;;
8568;SDS011;4322;51.104;-4.162;2022-12-07T20:55:00;2.90;;;2.80;;
8568;SDS011;4322;51.104;-4.162;2022-12-07T20:57:28;2.90;;;2.80;;
8568;SDS011;4322;51.104;-4.162;2022-12-07T20:59:56;2.90;;;2.80;;
8568;SDS011;4322;51.104;-4.162;2022-12-07T21:02:24;2.80;;;2.70;;
8568;SDS011;4322;51.104;-4.162;2022-12-07T21:04:54;2.60;;;2.50;;
8568;SDS011;4322;51.104;-4.162;2022-12-07T21:07:22;2.80;;;2.70;;
8568;SDS011;4322;51.104;-4.162;2022-12-07T21:09:50;2.90;;;2.80;;
8568;SDS011;4322;51.104;-4.162;2022-12-07T21:12:18;3.00;;;2.90;;
8568;SDS011;4322;51.104;-4.162;2022-12-07T21:14:46;2.90;;;2.80;;
8568;SDS011;4322;51.104;-4.162;2022-12-07T21:17:14;3.10;;;3.00;;
8568;SDS011;4322;51.104;-4.162;2022-12-07T21:19:42;3.10;;;3.00;;
8568;SDS011;4322;51.104;-4.162;2022-12-07T21:22:12;3.00;;;2.90;;
8568;SDS011;4322;51.104;-4.162;2022-12-07T21:24:40;2.90;;;2.80;;
8568;SDS011;4322;51.104;-4.162;2022-12-07T21:27:08;3.00;;;2.90;;
8568;SDS011;4322;51.104;-4.162;2022-12-07T21:29:36;2.83;;;2.73;;
8568;SDS011;4322;51.104;-4.162;2022-12-07T21:32:19;3.00;;;2.90;;
8568;SDS011;4322;51.104;-4.162;2022-12-07T21:34:47;2.70;;;2.60;;
8568;SDS011;4322;51.104;-4.162;2022-12-07T21:37:16;3.20;;;3.10;;
8568;SDS011;4322;51.104;-4.162;2022-12-07T21:39:45;2.90;;;2.80;;
8568;SDS011;4322;51.104;-4.162;2022-12-07T21:42:13;2.80;;;2.70;;
8568;SDS011;4322;51.104;-4.162;2022-12-07T21:44:41;2.70;;;2.60;;
8568;SDS011;4322;51.104;-4.162;2022-12-07T21:47:09;2.83;;;2.73;;
8568;SDS011;4322;51.104;-4.162;2022-12-07T21:49:37;3.00;;;2.90;;
8568;SDS011;4322;51.104;-4.162;2022-12-07T21:52:05;3.00;;;2.90;;
8568;SDS011;4322;51.104;-4.162;2022-12-07T21:54:34;3.10;;;3.00;;
8568;SDS011;4322;51.104;-4.162;2022-12-07T21:57:03;3.17;;;3.07;;
8568;SDS011;4322;51.104;-4.162;2022-12-07T21:59:31;3.30;;;3.20;;
8568;SDS011;4322;51.104;-4.162;2022-12-07T22:01:59;3.00;;;2.90;;
8568;SDS011;4322;51.104;-4.162;2022-12-07T22:04:28;3.00;;;2.90;;
8568;SDS011;4322;51.104;-4.162;2022-12-07T22:06:56;3.10;;;3.00;;
8568;SDS011;4322;51.104;-4.162;2022-12-07T22:09:24;2.90;;;2.80;;
